• Join FlightAware (Why Join?)
  • Login
  • US Flag 
05:53PM EDT


 

Airport Tracker/Info


-or-


 

Live Flight TrackerFlight Track Log ✈ RPA3392 ✈ 03-Jul-2013 ✈ KDCA - KALB

Flight Track Log - Related Links

Times and Time Zones

All times are in EDT time to prevent confusion due to time zone crossing. See the RPA3392 flight status page for this flight to view local times or setup timezone preferences in your user account.

Time Position Orientation Groundspeed Altitude Reporting Facility
EDT Latitude Longitude Course Direction KTS MPH feet Rate Location/Type
10:42PM 38.8000 -77.0333 83° East 164 189 1,800  Level Potomac TRACON
10:44PM 38.7325 -76.9756 146° Southeast 188 216 5,400 2,040 Climbing Washington Center
10:45PM 39.0764 -76.4106 61° Northeast  Level FlightAware Approximate
10:45PM 38.8058 -76.9342 24° Northeast 123 142 7,800  Level Washington Center
10:46PM 39.1167 -76.2837 90° East  Level FlightAware Approximate
10:46PM 38.8914 -76.9172 North 209 241 10,200  Level Washington Center
10:47PM 39.1556 -76.1607 83° East  Level FlightAware Approximate
10:47PM 38.9814 -76.8867 15° North 278 320 11,600  Level Washington Center
10:48PM 39.0222 -76.7725 65° Northeast 297 342 13,600 2,100 Climbing Washington Center
10:49PM 39.0525 -76.6475 73° East 318 366 15,800 1,920 Climbing Washington Center
10:50PM 39.0828 -76.5114 74° East 354 407 17,600 1,620 Climbing Washington Center
10:51PM 39.1150 -76.3756 73° East 381 438 19,100 1,620 Climbing Washington Center
10:52PM 39.1492 -76.2314 73° East 406 467 20,900 1,560 Climbing Washington Center
10:53PM 39.1708 -76.0817 79° East 418 481 22,200 1,020 Climbing Washington Center
10:54PM 39.2233 -75.9425 64° Northeast 418 481 23,000 360 Climbing Washington Center
10:55PM 39.3050 -75.8194 49° Northeast 430 495 23,000  Level Washington Center
10:56PM 39.3864 -75.6964 49° Northeast 441 507 23,000  Level Washington Center
10:57PM 39.4656 -75.5728 50° Northeast 441 507 23,000 240 Level Washington Center
10:58PM 39.5489 -75.4569 47° Northeast 441 507 23,500 900 Climbing Washington Center
10:59PM 39.6319 -75.3328 49° Northeast 441 507 24,800 840 Climbing Washington Center
11:00PM 39.7017 -75.2336 48° Northeast 451 519 25,000 300 Climbing New York Center
11:01PM 39.7881 -75.1014 50° Northeast 463 533 25,400 660 Climbing New York Center
11:02PM 39.8719 -74.9742 49° Northeast 468 539 26,400 1,080 Climbing New York Center
11:03PM 39.9728 -74.8339 47° Northeast 473 544 27,600 1,080 Climbing New York Center
11:04PM 40.0475 -74.7189 50° Northeast 463 533 28,600 660 Climbing New York Center
11:05PM 40.1458 -74.5778 48° Northeast 471 542 29,000 180 Climbing New York Center
11:06PM 40.2439 -74.4500 45° Northeast 482 555 29,000  Level New York Center
11:07PM 40.3494 -74.3386 39° Northeast 482 555 29,000  Level New York Center
11:08PM 40.4528 -74.2267 39° Northeast 482 555 29,000  Level New York Center
11:09PM 40.5558 -74.1144 40° Northeast 482 555 29,000 -1,200 Level New York Center
11:10PM 40.6611 -74.0047 38° Northeast 482 555 26,700 -1,800 Descending New York Center
11:11PM 40.8458 -73.8008 40° Northeast 468 539 24,000 -1,020 Descending Boston Center
11:12PM 40.9389 -73.6875 43° Northeast 455 524 23,900 -540 Descending Boston Center
11:13PM 41.0481 -73.6014 31° Northeast 455 524 23,000 -480 Descending Boston Center
11:14PM 41.1689 -73.6119 356° North 420 483 23,000 -600 Level Boston Center
11:15PM 41.2897 -73.6253 355° North 420 483 21,900 -1,380 Descending Boston Center
11:16PM 41.4061 -73.6411 354° North 420 483 20,300 -1,560 Descending Boston Center
11:17PM 41.5186 -73.6544 355° North 415 478 18,800 -1,500 Descending Boston Center
11:18PM 41.6267 -73.6675 355° North 402 463 17,400 -1,380 Descending Boston Center
11:19PM 41.7372 -73.6808 355° North 396 456 16,100 -1,440 Descending Boston Center
11:20PM 41.8203 -73.6936 353° North 389 448 14,900 -1,620 Descending Boston Center
11:21PM 41.9078 -73.7008 356° North 387 445 13,500 -1,560 Descending Boston Center
11:22PM 42.0139 -73.7142 355° North 356 410 12,000 -1,260 Descending Boston Center
11:23PM 42.1139 -73.7247 356° North 355 409 11,000 -600 Descending Boston Center
11:24PM 42.2117 -73.7322 357° North 352 405 10,900 -720 Descending Boston Center
11:25PM 42.2994 -73.7144 North 300 345 9,600 -1,500 Descending Boston Center
11:26PM 42.3747 -73.6992 North 290 334 8,100 -1,680 Descending Boston Center
11:27PM 42.4519 -73.6867 North 284 327 6,400 -1,740 Descending Boston Center
11:28PM 42.5292 -73.6797 North 277 319 4,700 -1,200 Descending Boston Center
11:29PM 42.6019 -73.6869 356° North 266 306 4,000 -780 Descending Boston Center
11:30PM 42.6769 -73.6883 359° North 267 307 3,200 -540 Descending Boston Center
11:31PM 42.7561 -73.6928 358° North 267 307 3,000 -120 Descending Boston Center
11:32PM 42.8208 -73.6942 359° North 222 255 3,000 -300 Level Boston Center
11:33PM 42.8619 -73.7317 326° Northwest 181 208 2,400 -600 Descending Boston Center